KADC

Wadena Municipal Airport

Wadena, Minnesota, USA
METAR KADC 201655Z AUTO 34010G16KT 294V004 10SM CLR 01/M08 A3028 RMK AO2
Observed Flight Rules
Oct-20 @ 16:55 UTC (17 minutes ago) Visual Flight Rules
Wind Visibility Clouds
340° at 10 knots
 Gusting to 16 knots
10 miles
  • Clear skies
Temperatures Readings
Current 1°C / 34°F
Dewpoint -8°C / 18°F
Humidity 51%
Altimeter 30.28" Hg
Pressure 1025 hPa
Elevation 418
METAR KADC 201655Z AUTO 34010G16KT 294V004 10SM CLR 01/M08 A3028 RMK AO2
Observed Flight Rules
Oct-20 @ 16:55 UTC
(17 minutes ago)
VFR
Wind Visibility
340° at 10 knots
 Gusting to 16 knots
10 miles
Clouds
  • Clear skies
Temperature Dewpoint
1°C / 34°F -8°C / 18°F
Humidity Altimeter Pressure
51% 30.28" Hg 1025 hPa